createdAt,value
2019-04-03T00:00:20.815Z,9.90
2019-04-03T00:02:49.224Z,9.80
2019-04-03T00:05:17.618Z,9.80
2019-04-03T00:07:48.992Z,9.70
2019-04-03T00:10:19.936Z,9.70
2019-04-03T00:12:51.298Z,9.70
2019-04-03T00:15:22.189Z,9.60
2019-04-03T00:17:53.429Z,9.50
2019-04-03T00:20:22.035Z,9.50
2019-04-03T00:22:52.034Z,9.40
2019-04-03T00:25:23.385Z,9.30
2019-04-03T00:27:54.480Z,9.30
2019-04-03T00:30:23.112Z,9.30
2019-04-03T00:32:54.177Z,9.20
2019-04-03T00:35:23.599Z,9.20
2019-04-03T00:37:54.935Z,9.10
2019-04-03T00:40:24.722Z,9.10
2019-04-03T00:42:54.750Z,9.10
2019-04-03T00:45:24.482Z,9.10
2019-04-03T00:47:55.787Z,9.10
2019-04-03T00:50:26.130Z,9.10
2019-04-03T00:52:58.721Z,9.10
2019-04-03T00:55:28.493Z,9.10
2019-04-03T00:57:56.963Z,9.10
2019-04-03T01:00:29.159Z,9.10
2019-04-03T01:02:58.852Z,9.10
2019-04-03T01:05:28.520Z,9.10
2019-04-03T01:08:00.881Z,9.10
2019-04-03T01:10:41.484Z,9.10
2019-04-03T01:13:10.244Z,9.10
2019-04-03T01:15:39.090Z,9.20
2019-04-03T01:18:10.393Z,9.20
2019-04-03T01:20:38.776Z,9.20
2019-04-03T01:23:07.695Z,9.20
2019-04-03T01:25:39.129Z,9.30
2019-04-03T01:28:09.790Z,9.30
2019-04-03T01:30:43.835Z,9.30
2019-04-03T01:33:19.197Z,9.30
2019-04-03T01:35:47.944Z,9.30
2019-04-03T01:38:19.474Z,9.30
2019-04-03T01:40:50.584Z,9.30
2019-04-03T01:43:19.121Z,9.30
2019-04-03T01:45:47.933Z,9.30
2019-04-03T01:48:18.289Z,9.30
2019-04-03T01:50:48.199Z,9.30
2019-04-03T01:53:19.274Z,9.30
2019-04-03T01:55:53.303Z,9.30
2019-04-03T01:58:21.677Z,9.30
2019-04-03T02:00:59.981Z,9.30
2019-04-03T02:03:32.146Z,9.30
2019-04-03T02:06:00.530Z,9.20
2019-04-03T02:08:29.230Z,9.20
2019-04-03T02:10:57.661Z,9.20
2019-04-03T02:13:32.002Z,9.20
2019-04-03T02:16:00.672Z,9.20
2019-04-03T02:18:30.677Z,9.10
2019-04-03T02:21:02.286Z,9.10
2019-04-03T02:23:31.218Z,9.10
2019-04-03T02:26:02.362Z,9.10
2019-04-03T02:28:30.999Z,9.10
2019-04-03T02:31:03.934Z,9.10
2019-04-03T02:33:32.308Z,9.10
2019-04-03T02:36:02.335Z,9.00
2019-04-03T02:38:33.559Z,9.00
2019-04-03T02:41:04.957Z,9.00
2019-04-03T02:43:38.264Z,9.00
2019-04-03T02:46:06.638Z,8.90
2019-04-03T02:48:38.793Z,8.90
2019-04-03T02:51:08.579Z,8.90
2019-04-03T02:53:36.990Z,8.90
2019-04-03T02:56:11.610Z,9.00
2019-04-03T02:58:41.454Z,9.00
2019-04-03T03:01:12.552Z,9.00
2019-04-03T03:03:42.529Z,9.00
2019-04-03T03:06:13.594Z,9.00
2019-04-03T03:08:43.404Z,9.00
2019-04-03T03:11:18.886Z,9.10
2019-04-03T03:13:51.244Z,9.10
2019-04-03T03:16:20.481Z,9.10
2019-04-03T03:18:53.463Z,9.10
2019-04-03T03:21:24.137Z,9.10
2019-04-03T03:23:55.200Z,9.10
2019-04-03T03:26:26.822Z,9.00
2019-04-03T03:29:14.220Z,9.00
2019-04-03T03:31:59.584Z,8.90
2019-04-03T03:34:06.851Z,9.00
2019-04-03T03:36:39.502Z,9.00
2019-04-03T03:39:12.138Z,9.00
2019-04-03T03:41:41.842Z,9.10
2019-04-03T03:44:14.264Z,9.00
2019-04-03T03:46:49.970Z,8.90
2019-04-03T03:49:20.383Z,8.90
2019-04-03T03:51:50.592Z,8.80
2019-04-03T03:54:20.570Z,8.70
2019-04-03T03:56:51.084Z,8.70
2019-04-03T03:59:23.098Z,8.70
2019-04-03T04:01:52.933Z,8.60
2019-04-03T04:04:22.074Z,8.60
2019-04-03T04:06:52.303Z,8.60
2019-04-03T04:09:20.684Z,8.60
2019-04-03T04:11:49.845Z,8.50
2019-04-03T04:14:22.839Z,8.50
2019-04-03T04:16:52.810Z,8.60
2019-04-03T04:19:22.488Z,8.50
2019-04-03T04:21:52.137Z,8.60
2019-04-03T04:24:21.170Z,8.50
2019-04-03T04:26:50.325Z,8.60
2019-04-03T04:29:24.197Z,8.70
2019-04-03T04:31:55.706Z,8.80
2019-04-03T04:34:30.481Z,8.90
2019-04-03T04:37:02.872Z,9.00
2019-04-03T04:39:40.017Z,9.00
2019-04-03T04:42:13.981Z,9.00
2019-04-03T04:44:42.369Z,9.00
2019-04-03T04:47:11.067Z,9.00
2019-04-03T04:49:39.460Z,8.90
2019-04-03T04:52:07.864Z,8.90
2019-04-03T04:54:36.778Z,8.90
2019-04-03T04:57:09.893Z,8.80
2019-04-03T04:59:45.170Z,8.80
2019-04-03T05:02:13.659Z,8.70
2019-04-03T05:04:45.596Z,8.70
2019-04-03T05:07:16.595Z,8.80
2019-04-03T05:09:44.638Z,8.80
2019-04-03T05:12:17.227Z,8.90
2019-04-03T05:14:48.935Z,8.90
2019-04-03T05:17:18.776Z,8.90
2019-04-03T05:19:48.986Z,8.90
2019-04-03T05:22:17.459Z,8.90
2019-04-03T05:24:47.497Z,9.00
2019-04-03T05:27:19.011Z,9.00
2019-04-03T05:29:53.193Z,9.00
2019-04-03T05:32:23.201Z,9.00
2019-04-03T05:34:51.592Z,9.10
2019-04-03T05:37:20.841Z,9.10
2019-04-03T05:39:54.745Z,9.10
2019-04-03T05:42:24.557Z,9.10
2019-04-03T05:44:57.257Z,9.20
2019-04-03T05:47:33.143Z,9.20
2019-04-03T05:50:01.525Z,9.20
2019-04-03T05:52:33.172Z,9.20
2019-04-03T05:55:03.326Z,9.30
2019-04-03T05:57:34.895Z,9.30
2019-04-03T06:00:07.588Z,9.30
2019-04-03T06:02:36.597Z,9.30
2019-04-03T06:05:11.473Z,9.30
2019-04-03T06:07:39.158Z,9.30
2019-04-03T06:10:10.693Z,9.40
2019-04-03T06:12:45.404Z,9.40
2019-04-03T06:15:16.273Z,9.40
2019-04-03T06:17:50.872Z,9.50
2019-04-03T06:20:21.016Z,9.50
2019-04-03T06:22:51.136Z,9.60
2019-04-03T06:25:21.971Z,9.60
2019-04-03T06:27:53.712Z,9.50
2019-04-03T06:30:28.349Z,9.60
2019-04-03T06:33:00.958Z,9.60
2019-04-03T06:35:28.732Z,9.60
2019-04-03T06:37:59.655Z,9.60
2019-04-03T06:40:28.769Z,9.70
2019-04-03T06:43:09.112Z,9.70
2019-04-03T06:45:37.497Z,9.80
2019-04-03T06:48:05.901Z,9.80
2019-04-03T06:50:37.205Z,9.80
2019-04-03T06:53:07.437Z,9.80
2019-04-03T06:55:39.257Z,9.80
2019-04-03T06:58:18.045Z,9.70
2019-04-03T07:00:54.359Z,9.70
2019-04-03T07:03:25.210Z,9.70
2019-04-03T07:05:59.430Z,9.70
2019-04-03T07:08:35.655Z,9.60
2019-04-03T07:11:02.472Z,9.60
2019-04-03T07:13:33.793Z,9.60
2019-04-03T07:16:04.078Z,9.50
2019-04-03T07:18:34.702Z,9.50
2019-04-03T07:21:05.097Z,9.60
2019-04-03T07:23:35.093Z,9.70
2019-04-03T07:26:05.221Z,9.80
2019-04-03T07:28:36.414Z,9.90
2019-04-03T07:31:07.857Z,9.90
2019-04-03T07:33:41.923Z,10.10
2019-04-03T07:36:13.444Z,10.10
2019-04-03T07:38:50.971Z,10.20
2019-04-03T07:41:22.054Z,10.20
2019-04-03T07:43:58.130Z,10.30
2019-04-03T07:46:26.548Z,10.30
2019-04-03T07:48:59.812Z,10.40
2019-04-03T07:51:31.393Z,10.40
2019-04-03T07:54:04.351Z,10.40
2019-04-03T07:56:31.789Z,10.40
2019-04-03T07:59:03.886Z,10.40
2019-04-03T08:01:34.781Z,10.40
2019-04-03T08:04:08.282Z,10.30
2019-04-03T08:06:36.670Z,10.30
2019-04-03T08:09:09.751Z,10.30
2019-04-03T08:11:40.621Z,10.30
2019-04-03T08:14:09.919Z,10.30
2019-04-03T08:16:42.823Z,10.20
2019-04-03T08:19:10.691Z,10.10
2019-04-03T08:21:42.750Z,10.00
2019-04-03T08:24:14.108Z,9.90
2019-04-03T08:26:42.535Z,9.80
2019-04-03T08:29:10.956Z,9.70
2019-04-03T08:31:42.739Z,9.60
2019-04-03T08:34:18.058Z,9.50
2019-04-03T08:36:48.740Z,9.40
2019-04-03T08:39:17.884Z,9.30
2019-04-03T08:41:47.910Z,9.20
2019-04-03T08:44:18.737Z,9.20
2019-04-03T08:46:50.086Z,9.10
2019-04-03T08:49:18.490Z,8.80
2019-04-03T08:51:46.865Z,8.30
2019-04-03T08:54:18.299Z,7.90
2019-04-03T08:56:48.643Z,7.60
2019-04-03T08:59:18.727Z,7.50
2019-04-03T09:01:47.104Z,7.40
2019-04-03T09:04:16.789Z,7.30
2019-04-03T09:06:45.593Z,7.20
2019-04-03T09:09:14.750Z,7.20
2019-04-03T09:11:50.146Z,7.20
2019-04-03T09:14:21.533Z,7.10
2019-04-03T09:16:53.094Z,7.20
2019-04-03T09:19:25.951Z,7.20
2019-04-03T09:21:57.706Z,7.20
2019-04-03T09:24:31.466Z,7.30
2019-04-03T09:27:08.232Z,7.40
2019-04-03T09:29:37.070Z,7.40
2019-04-03T09:32:08.241Z,7.30
2019-04-03T09:34:36.622Z,7.30
2019-04-03T09:37:06.430Z,7.30
2019-04-03T09:39:35.266Z,7.40
2019-04-03T09:42:05.085Z,7.50
2019-04-03T09:44:37.801Z,7.50
2019-04-03T09:47:06.377Z,7.70
2019-04-03T09:49:38.270Z,7.70
2019-04-03T09:52:12.841Z,7.50
2019-04-03T09:54:41.913Z,7.40
2019-04-03T09:57:10.874Z,7.30
2019-04-03T09:59:39.564Z,7.30
2019-04-03T10:02:11.609Z,7.20
2019-04-03T10:04:40.001Z,7.20
2019-04-03T10:07:11.157Z,7.20
2019-04-03T10:09:43.136Z,7.30
2019-04-03T10:12:10.869Z,7.30
2019-04-03T10:14:42.357Z,7.40
2019-04-03T10:17:10.754Z,7.50
2019-04-03T10:19:44.768Z,7.60
2019-04-03T10:22:12.209Z,7.70
2019-04-03T10:24:40.760Z,7.80
2019-04-03T10:27:24.514Z,7.80
2019-04-03T10:29:56.558Z,7.70
2019-04-03T10:32:27.706Z,7.60
2019-04-03T10:34:59.015Z,7.50
2019-04-03T10:37:27.985Z,7.40
2019-04-03T10:39:58.013Z,7.30
2019-04-03T10:42:32.638Z,7.20
2019-04-03T10:45:02.898Z,7.20
2019-04-03T10:47:41.170Z,7.20
2019-04-03T10:50:02.640Z,7.30
2019-04-03T10:52:37.172Z,7.50
2019-04-03T10:55:08.060Z,7.90
2019-04-03T10:57:41.136Z,8.30
2019-04-03T11:00:12.230Z,8.80
2019-04-03T11:02:40.861Z,9.00
2019-04-03T11:05:11.911Z,9.00
2019-04-03T11:07:40.362Z,9.00
2019-04-03T11:10:09.959Z,9.00
2019-04-03T11:12:53.348Z,8.80
2019-04-03T11:15:24.489Z,8.80
2019-04-03T11:17:58.916Z,8.90
2019-04-03T11:20:30.242Z,9.00
2019-04-03T11:23:06.304Z,9.10
2019-04-03T11:25:30.564Z,9.20
2019-04-03T11:28:05.164Z,9.50
2019-04-03T11:30:33.262Z,10.00
2019-04-03T11:33:04.815Z,10.30
2019-04-03T11:35:37.108Z,10.60
2019-04-03T11:38:14.139Z,10.90
2019-04-03T11:40:42.281Z,11.10
2019-04-03T11:43:10.934Z,11.20
2019-04-03T11:45:43.333Z,11.10
2019-04-03T11:48:12.730Z,11.00
2019-04-03T11:50:46.760Z,10.90
2019-04-03T11:53:15.891Z,10.80
2019-04-03T11:55:47.283Z,10.60
2019-04-03T11:58:20.709Z,10.40
2019-04-03T12:00:53.166Z,10.30
2019-04-03T12:03:31.104Z,10.30
2019-04-03T12:06:00.062Z,10.40
2019-04-03T12:08:34.337Z,10.80
2019-04-03T12:11:06.848Z,10.80
2019-04-03T12:13:46.294Z,10.90
2019-04-03T12:16:14.493Z,11.20
2019-04-03T12:18:42.884Z,11.60
2019-04-03T12:21:13.957Z,12.00
2019-04-03T12:23:41.389Z,12.30
2019-04-03T12:26:11.401Z,12.60
2019-04-03T12:28:43.154Z,12.60
2019-04-03T12:31:12.835Z,12.30
2019-04-03T12:33:51.983Z,12.30
2019-04-03T12:36:13.412Z,12.20
2019-04-03T12:38:41.434Z,11.90
2019-04-03T12:41:11.491Z,11.60
2019-04-03T12:43:42.853Z,11.70
2019-04-03T12:46:17.340Z,11.60
2019-04-03T12:48:46.566Z,11.00
2019-04-03T12:51:22.800Z,10.40
2019-04-03T12:53:52.051Z,10.10
2019-04-03T12:56:26.119Z,9.90
2019-04-03T12:58:57.663Z,9.80
2019-04-03T13:01:26.704Z,9.60
2019-04-03T13:03:56.357Z,9.40
2019-04-03T13:06:33.085Z,9.10
2019-04-03T13:09:01.770Z,9.00
2019-04-03T13:11:32.968Z,9.00
2019-04-03T13:14:05.365Z,8.80
2019-04-03T13:16:31.180Z,8.80
2019-04-03T13:19:05.697Z,8.90
2019-04-03T13:21:39.284Z,9.00
2019-04-03T13:24:06.886Z,9.20
2019-04-03T13:26:37.009Z,9.40
2019-04-03T13:29:08.585Z,9.80
2019-04-03T13:31:38.615Z,9.90
2019-04-03T13:34:31.550Z,10.10
2019-04-03T13:37:01.013Z,10.20
2019-04-03T13:39:35.473Z,10.40
2019-04-03T13:42:04.056Z,10.60
2019-04-03T13:44:34.561Z,10.90
2019-04-03T13:47:14.795Z,11.00
2019-04-03T13:49:44.250Z,11.10
2019-04-03T13:52:15.826Z,11.00
2019-04-03T13:54:45.476Z,10.70
2019-04-03T13:57:15.465Z,10.30
2019-04-03T13:59:48.262Z,9.90
2019-04-03T14:02:17.568Z,9.60
2019-04-03T14:04:51.300Z,9.50
2019-04-03T14:07:21.333Z,9.40
2019-04-03T14:09:53.762Z,9.40
2019-04-03T14:12:24.748Z,9.50
2019-04-03T14:14:56.283Z,9.70
2019-04-03T14:17:28.236Z,9.80
2019-04-03T14:19:57.275Z,9.90
2019-04-03T14:22:27.299Z,9.90
2019-04-03T14:25:08.316Z,9.90
2019-04-03T14:27:40.681Z,10.00
2019-04-03T14:30:12.032Z,9.80
2019-04-03T14:32:42.150Z,9.80
2019-04-03T14:35:41.987Z,9.80
2019-04-03T14:37:49.936Z,9.60
2019-04-03T14:40:21.099Z,9.60
2019-04-03T14:42:50.806Z,9.60
2019-04-03T14:45:20.001Z,9.60
2019-04-03T14:47:54.187Z,9.50
2019-04-03T14:50:27.341Z,9.40
2019-04-03T14:52:58.638Z,9.20
2019-04-03T14:55:30.032Z,9.10
2019-04-03T14:58:01.255Z,9.00
2019-04-03T15:00:35.811Z,8.90
2019-04-03T15:03:04.840Z,8.90
2019-04-03T15:05:40.324Z,8.80
2019-04-03T15:08:12.001Z,8.60
2019-04-03T15:10:40.630Z,8.40
2019-04-03T15:13:14.068Z,8.20
2019-04-03T15:15:41.724Z,8.10
2019-04-03T15:18:10.784Z,8.10
2019-04-03T15:20:40.503Z,8.00
2019-04-03T15:23:20.927Z,7.90
2019-04-03T15:25:52.291Z,7.80
2019-04-03T15:28:20.047Z,7.80
2019-04-03T15:30:51.527Z,7.70
2019-04-03T15:33:24.349Z,7.60
2019-04-03T15:35:56.934Z,7.40
2019-04-03T15:38:28.004Z,7.30
2019-04-03T15:40:58.647Z,7.30
2019-04-03T15:43:29.364Z,7.20
2019-04-03T15:45:58.590Z,7.10
2019-04-03T15:48:32.371Z,7.10
2019-04-03T15:51:11.203Z,7.00
2019-04-03T15:53:31.372Z,7.00
2019-04-03T15:56:00.506Z,7.00
2019-04-03T15:58:30.804Z,7.00
2019-04-03T16:01:02.879Z,6.90
2019-04-03T16:03:42.088Z,6.90
2019-04-03T16:06:11.950Z,6.90
2019-04-03T16:08:43.629Z,6.80
2019-04-03T16:11:13.735Z,6.80
2019-04-03T16:13:47.175Z,6.80
2019-04-03T16:16:15.641Z,6.70
2019-04-03T16:18:46.945Z,6.70
2019-04-03T16:21:22.390Z,6.70
2019-04-03T16:23:48.445Z,6.60
2019-04-03T16:26:18.472Z,6.60
2019-04-03T16:28:49.831Z,6.40
2019-04-03T16:31:20.554Z,6.40
2019-04-03T16:33:51.165Z,6.40
2019-04-03T16:36:21.222Z,6.40
2019-04-03T16:38:49.999Z,6.30
2019-04-03T16:41:19.335Z,6.20
2019-04-03T16:43:52.834Z,6.20
2019-04-03T16:46:30.837Z,6.10
2019-04-03T16:49:00.029Z,6.00
2019-04-03T16:51:33.357Z,6.00
2019-04-03T16:54:05.488Z,6.00
2019-04-03T16:56:38.645Z,6.00
2019-04-03T16:59:07.452Z,6.00
2019-04-03T17:01:37.352Z,5.90
2019-04-03T17:04:08.815Z,5.90
2019-04-03T17:06:39.604Z,5.90
2019-04-03T17:09:11.447Z,5.80
2019-04-03T17:11:43.521Z,5.80
2019-04-03T17:14:13.025Z,5.80
2019-04-03T17:16:41.477Z,5.80
2019-04-03T17:19:09.871Z,5.80
2019-04-03T17:21:39.575Z,5.80
2019-04-03T17:24:10.863Z,5.80
2019-04-03T17:26:51.286Z,5.80
2019-04-03T17:29:15.034Z,5.80
2019-04-03T17:31:44.559Z,5.80
2019-04-03T17:34:16.057Z,5.80
2019-04-03T17:36:44.460Z,5.70
2019-04-03T17:39:16.809Z,5.70
2019-04-03T17:41:48.732Z,5.70
2019-04-03T17:44:19.785Z,5.60
2019-04-03T17:46:49.433Z,5.60
2019-04-03T17:49:24.422Z,5.60
2019-04-03T17:51:51.743Z,5.60
2019-04-03T17:54:24.705Z,5.60
2019-04-03T17:56:54.729Z,5.50
2019-04-03T17:59:23.113Z,5.50
2019-04-03T18:01:54.365Z,5.50
2019-04-03T18:04:25.407Z,5.50
2019-04-03T18:07:00.457Z,5.40
2019-04-03T18:09:29.708Z,5.40
2019-04-03T18:12:02.306Z,5.40
2019-04-03T18:14:30.699Z,5.40
2019-04-03T18:17:02.043Z,5.30
2019-04-03T18:19:37.685Z,5.30
2019-04-03T18:22:06.689Z,5.30
2019-04-03T18:24:35.073Z,5.40
2019-04-03T18:27:06.439Z,5.30
2019-04-03T18:29:41.274Z,5.30
2019-04-03T18:32:09.663Z,5.30
2019-04-03T18:34:40.345Z,5.30
2019-04-03T18:37:10.385Z,5.30
2019-04-03T18:39:40.314Z,5.30
2019-04-03T18:42:18.630Z,5.30
2019-04-03T18:44:49.559Z,5.20
2019-04-03T18:47:18.202Z,5.20
2019-04-03T18:49:46.584Z,5.20
2019-04-03T18:52:20.541Z,5.20
2019-04-03T18:54:51.805Z,5.20
2019-04-03T18:57:23.013Z,5.20
2019-04-03T19:00:00.329Z,5.20
2019-04-03T19:02:27.409Z,5.20
2019-04-03T19:05:18.166Z,5.20
2019-04-03T19:07:51.925Z,5.20
2019-04-03T19:10:26.426Z,5.20
2019-04-03T19:12:57.796Z,5.20
2019-04-03T19:15:26.217Z,5.20
2019-04-03T19:18:00.446Z,5.30
2019-04-03T19:20:27.583Z,5.30
2019-04-03T19:23:02.890Z,5.20
2019-04-03T19:25:29.646Z,5.20
2019-04-03T19:28:04.811Z,5.20
2019-04-03T19:30:36.085Z,5.20
2019-04-03T19:33:08.666Z,5.20
2019-04-03T19:35:45.793Z,5.20
2019-04-03T19:38:15.709Z,5.20
2019-04-03T19:40:44.098Z,5.20
2019-04-03T19:43:14.916Z,5.20
2019-04-03T19:45:51.436Z,5.20
2019-04-03T19:48:20.658Z,5.20
2019-04-03T19:50:57.708Z,5.20
2019-04-03T19:53:29.038Z,5.20
2019-04-03T19:55:59.065Z,5.20
2019-04-03T19:58:29.721Z,5.10
2019-04-03T20:01:03.442Z,5.10
2019-04-03T20:03:31.239Z,5.00
2019-04-03T20:06:02.428Z,5.00
2019-04-03T20:08:33.701Z,4.90
2019-04-03T20:11:03.049Z,4.90
2019-04-03T20:13:32.831Z,4.80
2019-04-03T20:16:04.345Z,4.80
2019-04-03T20:18:41.242Z,4.80
2019-04-03T20:21:11.257Z,4.70
2019-04-03T20:23:41.581Z,4.70
2019-04-03T20:26:11.418Z,4.70
2019-04-03T20:28:39.789Z,4.70
2019-04-03T20:31:11.074Z,4.70
2019-04-03T20:33:42.108Z,4.70
2019-04-03T20:36:12.516Z,4.70
2019-04-03T20:38:40.899Z,4.80
2019-04-03T20:41:12.479Z,4.80
2019-04-03T20:43:42.742Z,4.70
2019-04-03T20:46:11.271Z,4.80
2019-04-03T20:48:41.336Z,4.80
2019-04-03T20:51:14.066Z,4.70
2019-04-03T20:53:42.458Z,4.70
2019-04-03T20:56:12.488Z,4.70
2019-04-03T20:58:55.143Z,4.70
2019-04-03T21:01:15.301Z,4.70
2019-04-03T21:03:46.399Z,4.60
2019-04-03T21:06:20.317Z,4.60
2019-04-03T21:08:47.793Z,4.60
2019-04-03T21:11:16.174Z,4.60
2019-04-03T21:13:49.165Z,4.60
2019-04-03T21:16:32.577Z,4.60
2019-04-03T21:18:51.427Z,4.60
2019-04-03T21:21:25.410Z,4.60
2019-04-03T21:23:53.721Z,4.60
2019-04-03T21:26:22.108Z,4.60
2019-04-03T21:28:50.474Z,4.70
2019-04-03T21:31:18.875Z,4.60
2019-04-03T21:33:50.261Z,4.60
2019-04-03T21:36:21.361Z,4.70
2019-04-03T21:38:49.740Z,4.70
2019-04-03T21:41:20.457Z,4.60
2019-04-03T21:43:59.580Z,4.70
2019-04-03T21:46:28.227Z,4.70
2019-04-03T21:49:00.933Z,4.70
2019-04-03T21:51:29.325Z,4.70
2019-04-03T21:53:57.709Z,4.70
2019-04-03T21:56:26.093Z,4.70
2019-04-03T21:58:54.469Z,4.60
2019-04-03T22:01:26.745Z,4.60
2019-04-03T22:03:56.961Z,4.60
2019-04-03T22:06:27.795Z,4.60
2019-04-03T22:09:04.228Z,4.60
2019-04-03T22:11:34.667Z,4.50
2019-04-03T22:14:05.828Z,4.60
2019-04-03T22:16:34.225Z,4.50
2019-04-03T22:19:05.399Z,4.60
2019-04-03T22:21:39.181Z,4.60
2019-04-03T22:24:10.509Z,4.60
2019-04-03T22:26:40.810Z,4.60
2019-04-03T22:29:15.852Z,4.50
2019-04-03T22:31:47.181Z,4.50
2019-04-03T22:34:22.901Z,4.60
2019-04-03T22:37:04.556Z,4.60
2019-04-03T22:39:33.557Z,4.50
2019-04-03T22:42:04.865Z,4.50
2019-04-03T22:44:33.497Z,4.60
2019-04-03T22:47:01.877Z,4.50
2019-04-03T22:49:34.682Z,4.50
2019-04-03T22:52:03.087Z,4.50
2019-04-03T22:54:34.171Z,4.50
2019-04-03T22:57:07.313Z,4.50
2019-04-03T22:59:38.721Z,4.50
2019-04-03T23:02:07.101Z,4.50
2019-04-03T23:04:46.161Z,4.50
2019-04-03T23:07:13.353Z,4.50
2019-04-03T23:09:46.336Z,4.50
2019-04-03T23:12:17.936Z,4.50
2019-04-03T23:14:46.322Z,4.50
2019-04-03T23:17:16.342Z,4.50
2019-04-03T23:19:47.013Z,4.50
2019-04-03T23:22:15.472Z,4.50
2019-04-03T23:24:43.865Z,4.50
2019-04-03T23:27:12.253Z,4.50
2019-04-03T23:29:45.257Z,4.40
2019-04-03T23:32:15.300Z,4.50
2019-04-03T23:34:45.397Z,4.40
2019-04-03T23:37:19.865Z,4.50
2019-04-03T23:39:48.255Z,4.50
2019-04-03T23:42:16.741Z,4.50
2019-04-03T23:44:45.129Z,4.40
2019-04-03T23:47:16.351Z,4.40
2019-04-03T23:49:45.451Z,4.40
2019-04-03T23:52:16.705Z,4.40
2019-04-03T23:54:47.858Z,4.40
2019-04-03T23:57:17.873Z,4.40
2019-04-03T23:59:51.630Z,4.40
